• Join FlightAware (Why Join?)
  • Login
  • US Flag 
10:04AM EDT


 

Airport Tracker/Info


-or-


 

Live Flight TrackerFlight Track Log ✈ FDX1570 ✈ 28-Jun-2013 ✈ KMEM - KALB

Flight Track Log - Related Links

Times and Time Zones

All times are in EDT time to prevent confusion due to time zone crossing. See the FDX1570 flight status page for this flight to view local times or setup timezone preferences in your user account.

Time Position Orientation Groundspeed Altitude Reporting Facility
EDT Latitude Longitude Course Direction KTS MPH feet Rate Location/Type
04:24AM 35.0167 -89.9667 180° South 177 204 1,200  Level KMEM
04:25AM 35.0000 -89.9667 180° South 182 209 2,200 1,680 Climbing KMEM
04:26AM 34.9500 -89.9167 141° Southeast 260 299 3,800 2,040 Climbing KMEM
04:27AM 34.9833 -89.8167 68° East 298 343 6,500 2,580 Climbing KMEM
04:28AM 35.0183 -89.7258 65° Northeast 283 326 9,400 2,220 Climbing Memphis Center
04:29AM 35.0553 -89.6367 63° Northeast 343 395 11,100 1,620 Climbing Memphis Center
04:30AM 35.0964 -89.5194 67° East 347 399 12,700 2,040 Climbing Memphis Center
04:31AM 35.1558 -89.4072 57° Northeast 378 435 15,200 2,280 Climbing Memphis Center
04:32AM 35.2261 -89.2997 51° Northeast 393 452 17,300 2,100 Climbing Memphis Center
04:33AM 35.2958 -89.1817 54° Northeast 420 483 19,400 1,980 Climbing Memphis Center
04:34AM 35.3656 -89.0636 54° Northeast 426 490 21,300 1,860 Climbing Memphis Center
04:35AM 35.4311 -88.9556 53° Northeast 434 499 23,200 1,740 Climbing Memphis Center
04:40AM 35.8550 -88.2510 53° Northeast 473 544 32,300 1,680 Climbing FlightAware
04:41AM 35.9100 -88.1580 54° Northeast 468 539 33,500 1,560 Climbing FlightAware
04:41AM 35.9590 -88.0760 54° Northeast 467 537 34,500 1,680 Climbing FlightAware
04:42AM 36.0160 -87.9780 54° Northeast 464 534 35,800 1,680 Climbing FlightAware
04:43AM 36.0640 -87.8960 54° Northeast 459 528 36,800 840 Climbing FlightAware
04:44AM 36.1200 -87.8010 54° Northeast 454 522 37,000 120 Climbing FlightAware
04:44AM 36.1730 -87.7100 54° Northeast 457 526 37,000  Level FlightAware
04:45AM 36.2220 -87.6250 54° Northeast 460 529 37,000  Level FlightAware
04:46AM 36.2750 -87.5350 54° Northeast 462 532 37,000  Level FlightAware
04:46AM 36.3230 -87.4530 54° Northeast 464 534 37,000  Level FlightAware
04:47AM 36.3820 -87.3490 55° Northeast 465 535 37,000  Level FlightAware
04:48AM 36.4370 -87.2550 54° Northeast 465 535 37,000  Level FlightAware
04:48AM 36.4880 -87.1660 55° Northeast 465 535 37,000  Level FlightAware
04:49AM 36.5400 -87.0750 55° Northeast 465 535 37,000  Level FlightAware
04:50AM 36.5870 -86.9940 54° Northeast 465 535 37,000  Level FlightAware
04:50AM 36.6420 -86.8980 54° Northeast 466 536 37,000  Level FlightAware
04:51AM 36.6690 -86.8496 55° Northeast 466 536 37,000  Level FlightAware ADS-B
04:51AM 36.7067 -86.7838 54° Northeast 466 536 37,000  Level FlightAware ADS-B
04:52AM 36.7442 -86.7180 55° Northeast 467 537 37,000  Level FlightAware ADS-B
04:52AM 36.7826 -86.6497 55° Northeast 467 537 37,000  Level FlightAware ADS-B
04:53AM 36.8206 -86.5814 55° Northeast 467 537 37,000  Level FlightAware ADS-B
04:53AM 36.8581 -86.5155 55° Northeast 467 537 37,000  Level FlightAware ADS-B
04:54AM 36.8962 -86.4472 55° Northeast 467 537 37,000  Level FlightAware ADS-B
04:54AM 36.9390 -86.3719 55° Northeast 467 537 37,000  Level FlightAware ADS-B
04:55AM 36.9776 -86.3033 55° Northeast 468 539 37,000  Level FlightAware ADS-B
04:56AM 37.0175 -86.2324 55° Northeast 468 539 37,000  Level FlightAware ADS-B
04:57AM 37.0840 -86.1110 55° Northeast 468 539 37,000  Level FlightAware
04:58AM 37.1660 -85.9640 55° Northeast 471 542 37,000  Level FlightAware
04:58AM 37.2180 -85.8720 55° Northeast 471 542 37,000  Level FlightAware
04:59AM 37.2660 -85.7840 56° Northeast 472 543 37,000  Level FlightAware
05:00AM 37.3834 -85.5700 55° Northeast 473 544 37,000  Level FlightAware ADS-B
05:01AM 37.4263 -85.4908 56° Northeast 473 544 37,000  Level FlightAware ADS-B
05:01AM 37.4636 -85.4228 55° Northeast 473 544 37,000  Level FlightAware ADS-B
05:02AM 37.5007 -85.3548 55° Northeast 473 544 37,000  Level FlightAware ADS-B
05:02AM 37.5380 -85.2863 56° Northeast 474 545 37,000  Level FlightAware ADS-B
05:03AM 37.5756 -85.2179 55° Northeast 474 545 37,000  Level FlightAware ADS-B
05:04AM 37.6147 -85.1449 56° Northeast 474 545 37,000  Level FlightAware ADS-B
05:04AM 37.6523 -85.0762 55° Northeast 475 547 37,000  Level FlightAware ADS-B
05:05AM 37.6970 -84.9910 56° Northeast 475 547 37,000  Level FlightAware
05:05AM 37.7280 -84.9360 55° Northeast 476 548 37,000  Level FlightAware
05:06AM 37.7840 -84.8300 56° Northeast 477 549 37,000  Level FlightAware
05:07AM 37.8430 -84.7190 56° Northeast 477 549 37,000  Level FlightAware
05:07AM 37.8930 -84.6260 56° Northeast 477 549 37,000  Level FlightAware
05:08AM 37.9460 -84.5270 56° Northeast 477 549 37,000  Level FlightAware
05:09AM 37.9960 -84.4310 57° Northeast 480 552 37,000  Level FlightAware
05:10AM 38.0770 -84.2810 56° Northeast 480 552 37,000  Level FlightAware
05:10AM 38.1000 -84.2370 56° Northeast 480 552 37,000  Level FlightAware
05:11AM 38.1410 -84.1590 56° Northeast 480 552 37,000  Level FlightAware
05:12AM 38.1940 -84.0600 56° Northeast 480 552 37,000  Level FlightAware
05:12AM 38.2680 -83.9120 57° Northeast 484 557 37,000  Level FlightAware
05:13AM 38.3110 -83.8320 56° Northeast 484 557 37,000  Level FlightAware
05:14AM 38.3630 -83.7330 56° Northeast 484 557 37,000  Level FlightAware
05:14AM 38.4020 -83.6610 55° Northeast 484 557 37,000  Level FlightAware
05:16AM 38.5300 -83.4080 57° Northeast 482 555 37,000  Level FlightAware
05:17AM 38.5760 -83.3170 57° Northeast 483 556 37,000  Level FlightAware
05:17AM 38.6370 -83.1980 57° Northeast 484 557 37,000  Level FlightAware
05:18AM 38.6880 -83.0990 57° Northeast 485 558 37,000  Level FlightAware
05:19AM 38.7330 -83.0100 57° Northeast 485 558 37,000  Level FlightAware
05:19AM 38.7840 -82.9090 57° Northeast 484 557 37,000  Level FlightAware
05:20AM 38.8400 -82.7960 58° Northeast 482 555 37,000  Level FlightAware
05:21AM 38.8900 -82.6970 57° Northeast 482 555 37,000  Level FlightAware
05:22AM 38.9400 -82.5980 57° Northeast 483 556 37,000  Level FlightAware
05:22AM 38.9930 -82.4920 57° Northeast 484 557 37,000  Level FlightAware
05:23AM 39.0420 -82.3920 58° Northeast 485 558 37,000  Level FlightAware
05:24AM 39.0960 -82.2850 57° Northeast 487 560 37,000  Level FlightAware
05:24AM 39.1430 -82.1890 58° Northeast 488 562 37,000  Level FlightAware
05:25AM 39.1970 -82.0790 58° Northeast 490 564 37,000  Level FlightAware
05:26AM 39.2400 -81.9740 62° Northeast 506 582 37,000  Level FlightAware
05:26AM 39.2620 -81.8460 77° East 515 593 37,000  Level FlightAware
05:27AM 39.2810 -81.7250 78° East 515 593 37,000  Level FlightAware
05:28AM 39.3060 -81.6140 74° East 508 585 37,000  Level FlightAware
05:28AM 39.3490 -81.4910 66° East 499 574 37,000  Level FlightAware
05:29AM 39.3990 -81.3880 58° Northeast 494 568 37,000  Level FlightAware
05:30AM 39.4540 -81.2790 57° Northeast 497 572 37,000  Level FlightAware
05:31AM 39.5080 -81.1710 57° Northeast 499 574 37,000  Level FlightAware
05:31AM 39.5580 -81.0680 58° Northeast 500 575 37,000  Level FlightAware
05:32AM 39.6090 -80.9640 57° Northeast 500 575 37,000  Level FlightAware
05:33AM 39.6600 -80.8610 57° Northeast 500 575 37,000  Level FlightAware
05:33AM 39.7180 -80.7420 58° Northeast 501 577 37,000  Level FlightAware
05:34AM 39.7680 -80.6420 57° Northeast 502 578 37,000  Level FlightAware
05:35AM 39.8150 -80.5450 58° Northeast 504 580 37,000  Level FlightAware
05:35AM 39.8710 -80.4300 58° Northeast 504 580 37,000  Level FlightAware
05:36AM 39.9230 -80.3220 58° Northeast 505 581 37,000  Level FlightAware
05:37AM 39.9720 -80.2220 57° Northeast 504 580 37,000  Level FlightAware
05:38AM 40.0300 -80.1000 58° Northeast 505 581 37,000  Level FlightAware
05:38AM 40.0820 -79.9920 58° Northeast 505 581 37,000  Level FlightAware
05:39AM 40.1340 -79.8830 58° Northeast 505 581 37,000  Level FlightAware
05:40AM 40.1810 -79.7850 58° Northeast 504 580 37,000  Level FlightAware
05:40AM 40.2380 -79.6660 58° Northeast 503 579 37,000  Level FlightAware
05:41AM 40.2910 -79.5550 58° Northeast 501 577 37,000  Level FlightAware
05:42AM 40.3370 -79.4540 59° Northeast 500 575 37,000  Level FlightAware
05:43AM 40.3930 -79.3360 58° Northeast 499 574 37,000  Level FlightAware
05:43AM 40.4440 -79.2270 58° Northeast 500 575 37,000  Level FlightAware
05:44AM 40.4920 -79.1260 58° Northeast 501 577 37,000  Level FlightAware
05:45AM 40.5481 -79.0011 58° Northeast 502 578 37,000  Level Cleveland Center
05:46AM 40.6211 -78.8461 58° Northeast 502 578 37,000  Level Cleveland Center
05:52AM 41.0488 -77.9070 58° Northeast 510 587 37,000  Level FlightAware ADS-B
05:52AM 41.0929 -77.8078 59° Northeast 508 585 37,000 -180 Level FlightAware ADS-B
05:53AM 41.1308 -77.7221 60° Northeast 508 585 36,800 -660 Descending FlightAware ADS-B
05:53AM 41.1688 -77.6368 59° Northeast 504 580 36,300 -840 Descending FlightAware ADS-B
05:54AM 41.2420 -77.4701 60° Northeast 499 574 35,500 -1,080 Descending FlightAware ADS-B
05:55AM 41.2893 -77.3647 59° Northeast 496 571 34,500 -1,680 Descending FlightAware ADS-B
05:56AM 41.3381 -77.2540 60° Northeast 496 571 33,200 -1,860 Descending FlightAware ADS-B
05:56AM 41.3768 -77.1642 60° Northeast 497 572 32,200 -2,040 Descending FlightAware ADS-B
05:57AM 41.4141 -77.0815 59° Northeast 500 575 31,000 -2,040 Descending FlightAware ADS-B
05:58AM 41.4702 -76.9501 60° Northeast 504 580 29,500 -1,440 Descending FlightAware ADS-B
05:58AM 41.5140 -76.8480 60° Northeast 504 580 29,000 -480 Descending FlightAware ADS-B
05:59AM 41.5501 -76.7642 60° Northeast 508 585 29,000 -120 Level FlightAware ADS-B
05:59AM 41.5955 -76.6611 59° Northeast 505 581 28,900 -600 Descending FlightAware ADS-B
06:00AM 41.6459 -76.5423 60° Northeast 503 579 28,200 -1,020 Descending FlightAware ADS-B
06:01AM 41.6870 -76.4453 60° Northeast 502 578 27,600 -1,140 Descending FlightAware ADS-B
06:01AM 41.7359 -76.3296 60° Northeast 500 575 26,700 -1,140 Descending FlightAware ADS-B
06:02AM 41.8082 -76.1588 60° Northeast 500 575 25,600 -1,080 Descending FlightAware ADS-B
06:03AM 41.8520 -76.0560 60° Northeast 485 558 24,900 -1,080 Descending FlightAware
06:04AM 41.8970 -75.9490 61° Northeast 482 555 24,100 -840 Descending FlightAware
06:04AM 41.9210 -75.8910 61° Northeast 484 557 24,000 -120 Descending FlightAware
06:05AM 41.9630 -75.7890 61° Northeast 481 554 24,000  Level FlightAware
06:06AM 42.0310 -75.6280 60° Northeast 484 557 24,000  Level FlightAware
06:07AM 42.0900 -75.4850 61° Northeast 479 551 24,000  Level FlightAware
06:07AM 42.1270 -75.3960 61° Northeast 480 552 24,000  Level FlightAware
06:09AM 42.1970 -75.2260 61° Northeast 498 573 24,000 -240 Level FlightAware
06:09AM 42.2680 -75.0510 61° Northeast 493 567 23,500 -240 Descending FlightAware
06:11AM 42.3430 -74.8680 61° Northeast 493 567 23,500 -4,140 Level FlightAware
06:12AM 42.4244 -74.6594 61° Northeast 436 502 13,000 -5,460 Descending Boston Center
06:13AM 42.4792 -74.5317 60° Northeast 385 443 11,400 -1,140 Descending Boston Center
06:14AM 42.5250 -74.4150 62° Northeast 335 386 10,800 -1,020 Descending Boston Center
06:15AM 42.5708 -74.2953 63° Northeast 329 379 9,300 -1,500 Descending Boston Center
06:16AM 42.6119 -74.1978 60° Northeast 324 373 7,800 -1,380 Descending Boston Center
06:17AM 42.6614 -74.1003 55° Northeast 315 362 6,600 -1,440 Descending Boston Center
06:18AM 42.7311 -74.0286 37° Northeast 308 354 4,900 -1,440 Descending Boston Center
06:19AM 42.7964 -73.9764 30° Northeast 298 343 3,700 -1,140 Descending Boston Center
06:20AM 42.8617 -73.9328 26° Northeast 239 275 2,700 -660 Descending Boston Center
06:21AM 42.9228 -73.8861 29° Northeast 219 252 2,400 -360 Descending Boston Center
06:22AM 42.9256 -73.8208 87° East 174 200 2,000 -240 Descending Boston Center
06:23AM 42.8839 -73.8114 171° South 88 101 2,000  Level Boston Center
06:24AM 42.8633 -73.7942 148° Southeast 88 101 2,000 -360 Level Boston Center
06:25AM 42.8111 -73.8128 195° South 107 123 1,300 -600 Descending Boston Center
06:26AM 42.7819 -73.8092 175° South 104 120 800 -540 Descending Boston Center